Time;durP1;ratioP1;P1;durP2;ratioP2;P2;SDS_P1;SDS_P2;PMS_P1;PMS_P2;Temp;Humidity;BMP_temperature;BMP_pressure;BME280_temperature;BME280_humidity;BME280_pressure;Samples;Min_cycle;Max_cycle;Signal;HPM_P1;HPM_P2
2022/08/04 00:03:09;;;;;;;6.95;3.08;;;;;;;23.06;57.31;100215.94;10222243;29;20102;-78
2022/08/04 00:08:21;;;;;;;9.75;3.45;;;;;;;22.10;60.14;100222.44;10222958;29;20079;-78
2022/08/04 00:13:27;;;;;;;8.77;3.60;;;;;;;21.97;61.28;100225.09;10224153;29;20050;-78
2022/08/04 00:18:35;;;;;;;9.93;4.13;;;;;;;21.68;62.09;100221.56;10232663;29;20102;-78
2022/08/04 00:23:39;;;;;;;12.68;3.90;;;;;;;22.31;60.75;100222.31;10259449;29;20051;-76
2022/08/04 00:29:03;;;;;;;11.45;3.80;;;;;;;22.36;60.97;100213.50;10256409;29;20051;-78
2022/08/04 00:34:06;;;;;;;13.20;4.57;;;;;;;22.45;60.79;100217.75;10226089;29;20056;-78
2022/08/04 00:39:12;;;;;;;10.38;3.28;;;;;;;22.57;60.64;100215.25;10223149;29;20055;-78
2022/08/04 00:44:37;;;;;;;11.15;3.80;;;;;;;22.64;60.35;100209.78;10223141;29;20043;-78
2022/08/04 00:50:05;;;;;;;11.80;4.07;;;;;;;22.81;59.79;100211.06;10227943;29;20058;-78
2022/08/04 00:55:31;;;;;;;11.30;3.50;;;;;;;22.83;58.93;100202.66;10227674;29;20047;-78
2022/08/04 01:00:48;;;;;;;14.10;3.70;;;;;;;22.75;59.40;100206.44;10227540;29;20098;-78
2022/08/04 01:06:04;;;;;;;11.73;3.45;;;;;;;22.82;59.26;100209.16;10239496;29;20147;-78
2022/08/04 01:11:31;;;;;;;10.15;3.85;;;;;;;22.81;59.48;100211.06;10223178;29;20050;-77
2022/08/04 01:17:18;;;;;;;11.43;4.30;;;;;;;22.85;59.13;100206.88;10224928;29;20063;-80
2022/08/04 01:23:00;;;;;;;8.90;3.50;;;;;;;22.86;58.61;100203.09;10216669;29;20494;-80
2022/08/04 01:28:20;;;;;;;7.47;3.55;;;;;;;22.75;58.78;100200.97;10229421;29;20051;-80
2022/08/04 01:33:29;;;;;;;11.82;3.40;;;;;;;22.68;59.00;100197.38;10223648;29;20420;-80
2022/08/04 01:38:54;;;;;;;8.55;3.55;;;;;;;22.58;59.55;100192.31;10219761;29;20071;-80
2022/08/04 01:43:59;;;;;;;13.73;3.95;;;;;;;22.53;59.64;100187.47;10218424;29;20046;-77
2022/08/04 01:49:06;;;;;;;8.38;3.30;;;;;;;22.54;59.66;100189.16;10212944;29;20055;-79
2022/08/04 01:54:09;;;;;;;12.45;3.63;;;;;;;22.33;59.74;100194.75;10219409;29;20048;-80
2022/08/04 01:59:17;;;;;;;14.95;3.88;;;;;;;22.19;60.32;100191.13;10218851;29;20044;-77
2022/08/04 02:04:22;;;;;;;9.60;3.97;;;;;;;22.08;60.71;100186.25;10214213;29;20052;-79
2022/08/04 02:09:36;;;;;;;9.27;3.78;;;;;;;22.15;60.77;100180.81;10230248;29;20075;-80
2022/08/04 02:15:02;;;;;;;18.40;4.57;;;;;;;21.95;61.55;100178.00;10219915;29;20039;-80
2022/08/04 02:20:09;;;;;;;10.60;4.20;;;;;;;21.94;61.56;100173.56;10213721;29;20047;-79
2022/08/04 02:25:19;;;;;;;12.13;4.13;;;;;;;21.98;61.80;100166.66;10218883;29;20044;-79
2022/08/04 02:30:27;;;;;;;10.38;4.30;;;;;;;22.08;61.50;100169.84;10217577;29;20047;-78
2022/08/04 02:35:36;;;;;;;9.80;3.65;;;;;;;22.14;60.88;100159.97;10217163;29;20043;-79
2022/08/04 02:40:41;;;;;;;8.80;4.32;;;;;;;21.99;61.51;100155.50;10217459;29;20062;-77
2022/08/04 02:45:47;;;;;;;12.80;4.30;;;;;;;21.83;61.88;100147.66;10220634;29;20040;-79
2022/08/04 02:50:54;;;;;;;10.52;3.92;;;;;;;21.86;62.00;100147.28;10218343;29;20039;-78
2022/08/04 02:56:00;;;;;;;14.73;5.65;;;;;;;21.73;62.09;100139.81;10218674;29;20437;-78
2022/08/04 03:01:03;;;;;;;8.82;4.80;;;;;;;21.69;63.01;100135.78;10214643;29;20048;-77
2022/08/04 03:06:36;;;;;;;10.68;4.72;;;;;;;21.68;63.05;100134.94;10217380;29;20048;-80
2022/08/04 03:11:56;;;;;;;10.93;4.60;;;;;;;21.65;63.18;100124.44;10216227;29;20047;-79
2022/08/04 03:17:32;;;;;;;8.25;5.20;;;;;;;21.57;63.51;100131.97;10212649;29;20052;-78
2022/08/04 03:23:04;;;;;;;7.80;5.20;;;;;;;21.36;64.13;100128.25;10205323;29;20066;-78
2022/08/04 03:28:50;;;;;;;12.50;4.82;;;;;;;21.26;64.40;100133.25;10214351;29;20294;-79
2022/08/04 03:34:08;;;;;;;12.27;4.97;;;;;;;21.08;64.97;100127.47;10212175;29;20040;-78
2022/08/04 03:39:47;;;;;;;9.93;4.78;;;;;;;21.04;64.61;100127.03;10210514;29;20094;-78
2022/08/04 03:45:41;;;;;;;9.02;4.75;;;;;;;21.14;64.41;100122.03;10213479;29;20039;-78
2022/08/04 03:57:40;;;;;;;8.57;4.90;;;;;;;21.19;63.72;100115.97;10206040;29;20401;-80
2022/08/04 04:03:36;;;;;;;13.50;4.90;;;;;;;21.18;63.51;100117.88;10180425;29;20448;-79
2022/08/04 04:09:13;;;;;;;7.78;4.47;;;;;;;21.17;63.52;100112.59;10183489;29;20111;-79
2022/08/04 04:14:37;;;;;;;;;;;;;;;21.13;63.63;100108.59;10217335;29;20159;-77
2022/08/04 04:19:55;;;;;;;7.68;4.90;;;;;;;21.12;63.51;100117.84;10216827;29;19923;-78
2022/08/04 04:25:19;;;;;;;7.45;4.15;;;;;;;21.14;63.28;100111.09;10209947;29;20051;-79
2022/08/04 04:30:31;;;;;;;10.02;4.03;;;;;;;21.24;62.65;100116.22;10212200;29;20054;-76
2022/08/04 04:35:41;;;;;;;8.13;3.85;;;;;;;21.28;62.54;100113.91;10212945;29;20040;-79
2022/08/04 04:40:53;;;;;;;7.88;4.18;;;;;;;21.28;62.56;100112.03;10224338;29;20044;-77
2022/08/04 04:46:05;;;;;;;6.22;3.53;;;;;;;21.37;62.29;100108.09;10214205;29;20044;-77
2022/08/04 04:51:20;;;;;;;8.45;4.95;;;;;;;21.57;61.44;100107.38;10214290;29;20561;-79
2022/08/04 04:56:30;;;;;;;6.23;3.83;;;;;;;21.71;61.55;100094.59;10215212;29;20051;-78
2022/08/04 05:02:12;;;;;;;5.70;3.78;;;;;;;21.85;60.63;100099.09;10217191;29;20479;-78
2022/08/04 05:07:38;;;;;;;11.80;3.57;;;;;;;21.95;60.53;100102.28;10237007;29;20123;-76
2022/08/04 05:12:58;;;;;;;6.03;3.70;;;;;;;22.08;60.83;100096.84;10220945;29;20083;-77
2022/08/04 05:18:26;;;;;;;6.80;3.28;;;;;;;22.28;60.46;100099.59;10215037;29;20061;-77
2022/08/04 05:23:37;;;;;;;8.77;3.40;;;;;;;22.43;60.36;100102.19;10215222;29;20048;-77
2022/08/04 05:28:43;;;;;;;7.53;3.60;;;;;;;22.55;60.05;100097.78;10209215;29;20130;-77
2022/08/04 05:33:49;;;;;;;6.85;3.60;;;;;;;22.56;59.59;100087.66;10235259;29;20059;-77
2022/08/04 05:38:58;;;;;;;10.60;4.78;;;;;;;22.68;59.55;100093.34;10236344;29;20059;-76
2022/08/04 05:44:03;;;;;;;8.07;3.53;;;;;;;22.78;59.22;100086.38;10219365;29;20065;-78
2022/08/04 05:49:08;;;;;;;11.15;3.45;;;;;;;22.81;59.09;100084.28;10220307;29;20051;-78
2022/08/04 05:54:18;;;;;;;6.45;3.60;;;;;;;22.84;58.88;100078.38;10201287;29;20134;-78
2022/08/04 05:59:24;;;;;;;10.50;3.47;;;;;;;22.93;59.04;100077.97;10221246;29;20043;-78
2022/08/04 06:04:32;;;;;;;6.07;3.42;;;;;;;23.10;58.95;100074.78;10222450;29;20059;-78
2022/08/04 06:09:37;;;;;;;7.88;3.40;;;;;;;23.54;57.64;100084.97;10218574;29;20052;-77
2022/08/04 06:14:43;;;;;;;6.55;3.78;;;;;;;23.78;56.63;100074.34;10219705;29;20036;-76
2022/08/04 06:19:49;;;;;;;6.80;3.70;;;;;;;23.98;57.12;100083.31;10235350;29;20063;-77
2022/08/04 06:25:10;;;;;;;7.78;4.05;;;;;;;24.50;55.54;100075.81;10219102;29;20059;-77
2022/08/04 06:30:17;;;;;;;7.40;3.25;;;;;;;24.95;55.06;100075.59;10215271;29;20146;-77
2022/08/04 06:35:21;;;;;;;10.02;3.55;;;;;;;25.01;53.53;100079.34;10224215;29;20071;-76
2022/08/04 06:40:27;;;;;;;6.57;3.65;;;;;;;24.64;53.74;100079.28;10222837;29;20043;-78
2022/08/04 06:45:37;;;;;;;5.57;3.50;;;;;;;24.61;54.17;100074.25;10222911;29;20043;-77
2022/08/04 06:50:44;;;;;;;5.93;3.15;;;;;;;24.71;54.21;100070.97;10222036;29;20160;-77
2022/08/04 06:56:09;;;;;;;7.10;3.47;;;;;;;25.01;53.86;100073.00;10202054;29;20047;-77
2022/08/04 07:01:13;;;;;;;6.80;3.53;;;;;;;25.33;53.02;100066.34;10219993;29;20043;-77
2022/08/04 07:06:17;;;;;;;6.47;3.53;;;;;;;25.49;52.21;100061.31;10220091;29;20560;-77
2022/08/04 07:11:24;;;;;;;8.15;3.95;;;;;;;25.78;51.71;100056.91;10219799;29;20063;-77
2022/08/04 07:16:32;;;;;;;9.75;3.90;;;;;;;25.82;50.59;100053.47;10220552;29;20079;-77
2022/08/04 07:21:35;;;;;;;5.35;3.30;;;;;;;26.25;49.50;100043.38;10215633;29;20598;-77
2022/08/04 07:26:40;;;;;;;6.38;3.70;;;;;;;26.55;49.12;100048.78;10214384;29;20114;-78
2022/08/04 07:31:44;;;;;;;4.97;3.40;;;;;;;27.01;48.29;100049.03;10215674;29;20051;-77
2022/08/04 07:36:48;;;;;;;4.95;3.15;;;;;;;27.38;47.80;100052.34;10232479;29;20052;-77
2022/08/04 07:41:55;;;;;;;5.22;2.92;;;;;;;27.15;47.35;100045.81;10231916;29;20071;-77
2022/08/04 07:53:58;;;;;;;8.20;3.40;;;;;;;28.58;44.49;100052.41;10225471;29;20048;-80
2022/08/04 08:00:22;;;;;;;6.57;3.08;;;;;;;28.71;43.91;100050.16;10209540;29;20537;-78
2022/08/04 08:05:26;;;;;;;6.60;3.70;;;;;;;29.00;44.03;100046.44;10210812;29;20048;-81
2022/08/04 08:10:28;;;;;;;5.85;3.20;;;;;;;29.32;42.79;100044.69;10229767;29;20056;-81
2022/08/04 08:15:33;;;;;;;9.52;3.05;;;;;;;29.80;42.17;100032.00;10215141;29;20429;-82
2022/08/04 08:20:36;;;;;;;2.83;2.60;;;;;;;29.97;41.84;100031.03;10217534;29;20083;-82
2022/08/04 08:25:39;;;;;;;6.00;3.22;;;;;;;30.41;41.13;100028.16;10221174;29;20063;-80
2022/08/04 08:30:43;;;;;;;4.68;3.20;;;;;;;30.83;41.15;100019.91;10210534;29;20075;-79
2022/08/04 08:35:51;;;;;;;5.28;3.00;;;;;;;31.11;39.20;100021.44;10240799;28;20044;-78
2022/08/04 08:41:04;;;;;;;2.72;2.53;;;;;;;31.49;38.82;100022.19;10224826;29;20051;-80
2022/08/04 08:46:29;;;;;;;7.10;2.87;;;;;;;31.86;37.29;100017.56;10222301;29;20040;-82
2022/08/04 08:52:04;;;;;;;2.97;2.70;;;;;;;31.77;37.98;100015.34;10221439;29;20074;-83
